Time;durP1;ratioP1;P1;durP2;ratioP2;P2;SDS_P1;SDS_P2;PMS_P1;PMS_P2;Temp;Humidity;BMP_temperature;BMP_pressure;BME280_temperature;BME280_humidity;BME280_pressure;Samples;Min_cycle;Max_cycle;Signal;HPM_P1;HPM_P2
2020/12/31 00:05:22;;;;;;;95.65;46.60;;;;;;;3.74;100.00;98225.52;4438303;79;28644;-85
2020/12/31 00:11:24;;;;;;;99.90;46.68;;;;;;;3.86;100.00;98235.83;4459154;79;28686;-84
2020/12/31 00:17:26;;;;;;;91.42;42.50;;;;;;;3.92;100.00;98237.36;4459284;80;28541;-84
2020/12/31 00:23:28;;;;;;;82.25;39.40;;;;;;;4.18;100.00;98238.61;4454817;78;28562;-86
2020/12/31 00:29:30;;;;;;;82.00;38.92;;;;;;;4.25;100.00;98241.25;4464032;79;28546;-86
2020/12/31 00:35:32;;;;;;;101.40;43.75;;;;;;;4.36;100.00;98242.95;4464513;78;28617;-84
2020/12/31 00:41:34;;;;;;;87.00;39.83;;;;;;;4.30;100.00;98243.28;4462340;79;28571;-87
2020/12/31 00:47:38;;;;;;;98.37;44.05;;;;;;;4.24;100.00;98250.27;4446032;79;28623;-83
2020/12/31 00:53:41;;;;;;;96.60;43.33;;;;;;;3.95;100.00;98256.89;4456708;79;28617;-85
2020/12/31 00:59:43;;;;;;;99.37;43.13;;;;;;;3.83;100.00;98254.86;4452970;79;28590;-82
2020/12/31 01:05:47;;;;;;;79.15;34.98;;;;;;;3.68;100.00;98259.06;4450202;79;28572;-83
2020/12/31 01:11:51;;;;;;;81.65;37.30;;;;;;;3.81;100.00;98252.92;4441903;79;28603;-83
2020/12/31 01:17:53;;;;;;;78.70;36.25;;;;;;;3.74;100.00;98258.75;4445406;79;28611;-83
2020/12/31 01:23:55;;;;;;;118.17;50.20;;;;;;;3.56;100.00;98266.03;4448532;79;28582;-84
2020/12/31 01:29:57;;;;;;;88.67;38.55;;;;;;;3.60;100.00;98261.92;4459071;78;28574;-85
2020/12/31 01:35:59;;;;;;;91.17;39.40;;;;;;;3.60;100.00;98264.09;4471331;79;28571;-86
2020/12/31 01:42:04;;;;;;;85.15;36.45;;;;;;;3.49;100.00;98264.17;4460724;79;28542;-86
2020/12/31 01:48:08;;;;;;;86.53;36.28;;;;;;;3.52;100.00;98280.73;4471796;79;28535;-84
2020/12/31 01:54:11;;;;;;;83.30;34.63;;;;;;;3.52;100.00;98282.06;4471362;79;28536;-84
2020/12/31 02:00:13;;;;;;;91.82;37.58;;;;;;;3.57;100.00;98282.28;4471754;79;28579;-83
2020/12/31 02:06:17;;;;;;;93.37;38.45;;;;;;;3.60;100.00;98283.19;4441301;79;28542;-84
2020/12/31 02:12:20;;;;;;;91.92;37.03;;;;;;;3.61;100.00;98301.61;4472760;79;28596;-83
2020/12/31 02:18:22;;;;;;;89.50;35.58;;;;;;;3.71;100.00;98303.84;4489742;78;28607;-86
2020/12/31 02:24:24;;;;;;;84.80;35.13;;;;;;;3.67;100.00;98310.60;4470690;79;28592;-85
2020/12/31 02:30:26;;;;;;;89.42;37.90;;;;;;;3.69;100.00;98316.53;4434420;79;28562;-85
2020/12/31 02:36:32;;;;;;;91.35;38.85;;;;;;;3.67;100.00;98316.42;4471143;79;28586;-83
2020/12/31 02:42:34;;;;;;;93.75;38.00;;;;;;;3.67;100.00;98314.59;4465454;79;28680;-85
2020/12/31 02:48:37;;;;;;;87.47;36.83;;;;;;;3.49;100.00;98313.34;4471442;79;28597;-84
2020/12/31 02:54:40;;;;;;;90.03;37.13;;;;;;;3.50;100.00;98310.19;4471132;79;28572;-84
2020/12/31 03:00:43;;;;;;;81.85;34.00;;;;;;;3.45;100.00;98314.78;4471213;79;28544;-84
2020/12/31 03:06:45;;;;;;;100.25;40.30;;;;;;;3.25;100.00;98327.21;4471418;79;28549;-84
2020/12/31 03:12:47;;;;;;;89.97;36.65;;;;;;;3.30;100.00;98316.29;4471122;79;28547;-84
2020/12/31 03:18:49;;;;;;;100.58;39.08;;;;;;;3.23;100.00;98312.79;4464518;79;28560;-82
2020/12/31 03:24:51;;;;;;;92.33;35.63;;;;;;;3.13;100.00;98313.69;4469057;79;28597;-83
2020/12/31 03:30:53;;;;;;;86.20;32.35;;;;;;;3.26;100.00;98298.30;4467719;79;28574;-85
2020/12/31 03:36:57;;;;;;;95.67;34.92;;;;;;;3.00;100.00;98304.67;4456932;79;28618;-85
2020/12/31 03:42:59;;;;;;;85.80;30.57;;;;;;;3.23;100.00;98319.92;4464831;79;28582;-85
2020/12/31 03:49:01;;;;;;;96.75;34.55;;;;;;;3.25;100.00;98301.45;4461945;79;28574;-85
2020/12/31 03:55:03;;;;;;;89.97;30.27;;;;;;;3.12;100.00;98315.52;4464359;79;28597;-86
2020/12/31 04:01:05;;;;;;;78.00;27.45;;;;;;;3.21;100.00;98313.51;4462686;79;28594;-86
2020/12/31 04:07:07;;;;;;;81.22;28.23;;;;;;;3.16;100.00;98325.23;4433937;79;28546;-84
2020/12/31 04:13:09;;;;;;;75.37;26.23;;;;;;;3.13;100.00;98329.13;4449860;79;28545;-84
2020/12/31 04:19:11;;;;;;;71.57;25.43;;;;;;;2.67;100.00;98334.58;4464645;79;28567;-87
2020/12/31 04:25:13;;;;;;;72.30;26.42;;;;;;;2.76;100.00;98337.38;4464723;79;28591;-86
2020/12/31 04:31:15;;;;;;;72.05;25.25;;;;;;;2.89;100.00;98341.90;4444300;79;28550;-84
2020/12/31 04:37:17;;;;;;;63.35;22.80;;;;;;;2.46;100.00;98324.37;4398276;80;28589;-85
2020/12/31 04:43:21;;;;;;;66.55;23.45;;;;;;;2.46;100.00;98324.37;4429904;79;28614;-85
2020/12/31 04:49:31;;;;;;;48.65;16.95;;;;;;;2.55;100.00;98325.51;4416323;80;28624;-85
2020/12/31 04:55:44;;;;;;;62.75;22.77;;;;;;;2.46;100.00;98340.78;4428921;79;28597;-85
2020/12/31 05:01:46;;;;;;;57.93;21.10;;;;;;;2.32;100.00;98335.89;4427502;80;28610;-86
2020/12/31 05:07:49;;;;;;;54.88;19.20;;;;;;;2.42;100.00;98335.05;4426765;80;28656;-86
2020/12/31 05:13:51;;;;;;;59.45;19.73;;;;;;;2.51;100.00;98327.23;4428462;79;28605;-85
2020/12/31 05:19:54;;;;;;;57.58;18.98;;;;;;;2.34;100.00;98334.70;4431928;80;28609;-87
2020/12/31 05:25:57;;;;;;;53.83;19.30;;;;;;;2.42;100.00;98346.17;4431819;79;28606;-83
2020/12/31 05:31:59;;;;;;;58.55;19.55;;;;;;;2.41;100.00;98352.50;4426829;80;28543;-83
2020/12/31 05:38:07;;;;;;;48.02;16.48;;;;;;;2.34;100.00;98355.09;4420836;79;28600;-83
2020/12/31 05:44:09;;;;;;;50.58;18.48;;;;;;;2.36;100.00;98360.52;4428167;80;28535;-84
2020/12/31 05:50:34;;;;;;;45.65;17.48;;;;;;;2.49;100.00;98364.27;4431956;80;28539;-83
2020/12/31 05:56:39;;;;;;;46.73;17.15;;;;;;;2.54;100.00;98371.14;4432444;80;28565;-83
2020/12/31 06:02:46;;;;;;;45.05;16.23;;;;;;;2.53;100.00;98366.86;4405396;80;28648;-82
2020/12/31 06:08:56;;;;;;;48.17;16.93;;;;;;;2.66;100.00;98364.79;4411080;79;28549;-84
2020/12/31 06:15:01;;;;;;;40.33;14.60;;;;;;;2.71;100.00;98371.64;4429706;80;28547;-81
2020/12/31 06:21:03;;;;;;;41.53;14.55;;;;;;;2.63;100.00;98369.98;4397838;80;28571;-82
2020/12/31 06:27:19;;;;;;;41.80;14.28;;;;;;;2.41;100.00;98355.95;4430880;80;28569;-82
2020/12/31 06:33:26;;;;;;;48.78;16.05;;;;;;;2.36;100.00;98369.80;4431058;80;28549;-82
2020/12/31 06:39:28;;;;;;;47.13;16.07;;;;;;;2.47;100.00;98371.11;4398260;80;28552;-82
2020/12/31 06:45:47;;;;;;;49.90;16.17;;;;;;;2.47;100.00;98372.44;4431916;80;28571;-80
2020/12/31 06:51:49;;;;;;;37.00;13.30;;;;;;;2.48;100.00;98380.70;4432035;80;28592;-82
2020/12/31 06:57:51;;;;;;;37.93;13.60;;;;;;;2.29;100.00;98370.29;4431031;80;28581;-83
2020/12/31 07:03:55;;;;;;;30.52;11.10;;;;;;;2.38;100.00;98369.63;4413007;79;28601;-84
2020/12/31 07:09:59;;;;;;;38.05;12.98;;;;;;;2.54;100.00;98377.78;4425316;80;28581;-84
2020/12/31 07:16:03;;;;;;;40.05;13.08;;;;;;;2.59;100.00;98381.17;4246299;82;28625;-85
2020/12/31 07:22:16;;;;;;;40.63;13.90;;;;;;;2.35;100.00;98388.59;4404963;80;28566;-84
2020/12/31 07:28:18;;;;;;;45.15;15.45;;;;;;;2.40;100.00;98392.80;4431723;80;28558;-82
2020/12/31 07:34:22;;;;;;;39.88;13.88;;;;;;;2.59;100.00;98399.75;4422151;79;28572;-81
2020/12/31 07:40:45;;;;;;;35.43;12.15;;;;;;;2.64;100.00;98411.42;4403800;79;28567;-85
2020/12/31 07:46:48;;;;;;;32.15;12.15;;;;;;;2.83;100.00;98405.10;4414776;79;28648;-86
2020/12/31 07:52:51;;;;;;;36.25;13.90;;;;;;;2.73;100.00;98409.42;4418163;79;28583;-84
2020/12/31 07:58:56;;;;;;;39.33;14.33;;;;;;;2.88;100.00;98403.19;4420823;79;28588;-85
2020/12/31 08:04:58;;;;;;;42.07;14.00;;;;;;;3.06;100.00;98404.78;4424535;79;28559;-82
2020/12/31 08:11:09;;;;;;;34.63;12.93;;;;;;;2.89;100.00;98415.45;4423357;79;28591;-84
2020/12/31 08:17:13;;;;;;;38.90;13.50;;;;;;;2.99;100.00;98407.94;4423132;79;28543;-81
2020/12/31 08:23:30;;;;;;;40.03;13.55;;;;;;;2.85;100.00;98410.20;4402151;79;28551;-83
2020/12/31 08:29:34;;;;;;;37.08;13.48;;;;;;;3.24;100.00;98415.38;4417115;79;28535;-87
2020/12/31 08:35:42;;;;;;;35.38;13.53;;;;;;;3.16;100.00;98427.01;4438781;79;28574;-90
2020/12/31 08:42:00;;;;;;;32.88;13.28;;;;;;;3.23;100.00;98432.84;4442772;78;28601;-88
2020/12/31 08:48:16;;;;;;;28.00;11.43;;;;;;;3.56;100.00;98446.25;4468637;79;28525;-82
2020/12/31 08:54:18;;;;;;;;;;;;;;;3.46;100.00;98447.97;4463589;78;28594;-80
2020/12/31 09:00:37;;;;;;;33.00;11.55;;;;;;;3.62;100.00;98453.44;4472455;78;20445;-84
2020/12/31 09:06:42;;;;;;;30.60;13.58;;;;;;;3.68;100.00;98459.80;4465200;78;28582;-85
2020/12/31 09:12:44;;;;;;;30.35;14.35;;;;;;;3.72;100.00;98445.59;4470031;78;28545;-84
2020/12/31 09:18:51;;;;;;;27.37;11.90;;;;;;;3.90;100.00;98453.81;4445832;78;28643;-85
2020/12/31 09:24:54;;;;;;;27.00;11.12;;;;;;;3.78;100.00;98448.76;4455353;78;28603;-88
2020/12/31 09:31:00;;;;;;;28.40;11.68;;;;;;;3.73;100.00;98445.38;4449750;79;28554;-86
2020/12/31 09:37:02;;;;;;;35.40;14.30;;;;;;;4.15;100.00;98445.24;4400719;79;28588;-85
2020/12/31 09:43:05;;;;;;;33.00;13.30;;;;;;;3.85;100.00;98437.63;4426789;79;28570;-84
2020/12/31 09:49:40;;;;;;;34.90;14.47;;;;;;;3.69;100.00;98438.00;4429768;78;28547;-88
2020/12/31 09:55:50;;;;;;;37.13;15.45;;;;;;;3.95;100.00;98429.24;4467469;79;28583;-93
2020/12/31 10:01:52;;;;;;;34.65;13.60;;;;;;;4.05;100.00;98425.67;4437179;79;28566;-91
2020/12/31 10:07:55;;;;;;;29.95;12.75;;;;;;;3.49;100.00;98432.95;4455446;79;28543;-89
2020/12/31 10:13:57;;;;;;;33.28;13.40;;;;;;;3.68;100.00;98423.06;4463092;79;28555;-87
2020/12/31 10:20:01;;;;;;;29.27;13.55;;;;;;;3.67;100.00;98418.28;4424523;79;28547;-88
2020/12/31 10:26:03;;;;;;;26.97;11.78;;;;;;;3.67;100.00;98414.78;4485403;78;28558;-83
2020/12/31 10:32:05;;;;;;;28.60;12.20;;;;;;;4.00;100.00;98410.02;4433492;78;28569;-86
2020/12/31 10:38:08;;;;;;;26.85;11.75;;;;;;;4.23;100.00;98404.30;4447560;78;28566;-84
2020/12/31 10:44:10;;;;;;;26.33;11.05;;;;;;;4.21;100.00;98396.20;4434321;78;28630;-87
2020/12/31 10:50:13;;;;;;;22.70;10.85;;;;;;;4.19;100.00;98385.79;4464657;79;28637;-88
2020/12/31 10:56:21;;;;;;;25.20;10.65;;;;;;;4.23;100.00;98390.99;4420722;78;28592;-87
2020/12/31 11:02:23;;;;;;;24.43;11.22;;;;;;;4.51;100.00;98378.47;4455119;79;28543;-84
2020/12/31 11:08:25;;;;;;;26.12;12.10;;;;;;;4.56;100.00;98373.35;4465795;78;28653;-85
2020/12/31 11:14:27;;;;;;;27.50;11.57;;;;;;;4.58;100.00;98364.63;4441213;78;28626;-84
2020/12/31 11:20:30;;;;;;;25.30;11.03;;;;;;;4.30;100.00;98357.22;4442084;78;28632;-83
2020/12/31 11:26:32;;;;;;;20.50;9.53;;;;;;;4.51;100.00;98352.67;4443878;79;28540;-86
2020/12/31 11:32:38;;;;;;;25.62;11.45;;;;;;;4.44;100.00;98348.70;4439182;79;28609;-83
2020/12/31 11:38:40;;;;;;;;;;;;;;;4.43;100.00;98341.75;4457431;78;28595;-82
2020/12/31 11:44:43;;;;;;;25.80;12.60;;;;;;;4.30;100.00;98333.27;4453094;79;20235;-83
2020/12/31 11:50:48;;;;;;;27.65;11.38;;;;;;;4.40;100.00;98325.38;4453235;79;28539;-83
2020/12/31 11:56:50;;;;;;;24.52;11.20;;;;;;;4.24;100.00;98316.78;4436554;79;28593;-83
2020/12/31 12:02:53;;;;;;;22.50;10.43;;;;;;;4.18;100.00;98305.66;4418606;79;28585;-83
2020/12/31 12:08:55;;;;;;;19.80;9.83;;;;;;;4.35;100.00;98314.52;4447672;79;28590;-82
2020/12/31 12:14:57;;;;;;;25.62;11.93;;;;;;;4.26;100.00;98311.27;4451125;79;28582;-85
2020/12/31 12:21:00;;;;;;;24.05;11.38;;;;;;;4.13;100.00;98306.78;4433215;79;28612;-83
2020/12/31 12:27:02;;;;;;;22.35;10.50;;;;;;;4.10;100.00;98305.88;4453857;79;28629;-83
2020/12/31 12:33:04;;;;;;;21.33;11.03;;;;;;;4.14;100.00;98304.42;4440134;78;28598;-85
2020/12/31 12:39:07;;;;;;;27.30;11.97;;;;;;;4.14;100.00;98294.61;4469056;79;28557;-85
2020/12/31 12:45:12;;;;;;;27.42;12.35;;;;;;;4.10;100.00;98292.04;4465805;78;28604;-84
2020/12/31 12:51:14;;;;;;;27.63;13.57;;;;;;;3.94;100.00;98300.47;4461970;78;33793;-83
2020/12/31 12:57:17;;;;;;;25.43;12.58;;;;;;;3.98;100.00;98284.39;4469173;78;28571;-83
2020/12/31 13:03:19;;;;;;;22.52;10.93;;;;;;;3.92;100.00;98290.03;4449035;78;28619;-85
2020/12/31 13:09:21;;;;;;;24.10;11.35;;;;;;;3.82;100.00;98293.61;4464176;78;28586;-86
2020/12/31 13:15:23;;;;;;;28.17;13.00;;;;;;;3.87;100.00;98294.63;4460398;78;28540;-86
2020/12/31 13:21:25;;;;;;;25.05;12.43;;;;;;;3.93;100.00;98289.53;4456526;78;28621;-86
2020/12/31 13:27:28;;;;;;;23.83;12.58;;;;;;;3.60;100.00;98297.31;4420351;78;28536;-85
2020/12/31 13:33:30;;;;;;;27.45;12.28;;;;;;;3.65;100.00;98295.38;4435983;79;28616;-86
2020/12/31 13:39:35;;;;;;;27.10;12.43;;;;;;;3.76;100.00;98289.94;4449335;78;28598;-87
2020/12/31 13:45:38;;;;;;;24.70;12.07;;;;;;;3.89;100.00;98294.44;4454397;78;34350;-84
2020/12/31 13:51:40;;;;;;;32.83;14.43;;;;;;;3.80;100.00;98300.48;4434223;78;28609;-81
2020/12/31 13:57:42;;;;;;;30.65;13.68;;;;;;;3.78;100.00;98299.84;4466125;78;28616;-82
2020/12/31 14:03:45;;;;;;;24.05;11.85;;;;;;;3.82;100.00;98301.59;4448975;78;28589;-83
2020/12/31 14:09:48;;;;;;;27.30;13.43;;;;;;;3.56;100.00;98304.56;4461140;78;28654;-81
2020/12/31 14:15:51;;;;;;;26.75;13.18;;;;;;;3.58;100.00;98299.86;4440904;78;28639;-81
2020/12/31 14:21:53;;;;;;;28.45;13.00;;;;;;;3.49;100.00;98299.25;4465526;78;28563;-81
2020/12/31 14:27:55;;;;;;;25.25;11.88;;;;;;;3.22;100.00;98295.22;4458316;78;28599;-82
2020/12/31 14:33:58;;;;;;;27.05;11.85;;;;;;;3.16;100.00;98296.84;4456085;78;28535;-82
2020/12/31 14:40:00;;;;;;;29.23;13.08;;;;;;;2.90;100.00;98289.62;4454393;79;28656;-79
2020/12/31 14:46:03;;;;;;;27.02;13.60;;;;;;;2.82;100.00;98291.13;4448076;78;28610;-82
2020/12/31 14:52:05;;;;;;;27.50;14.28;;;;;;;2.49;100.00;98296.10;4444350;79;29389;-81
2020/12/31 14:58:08;;;;;;;28.55;14.45;;;;;;;2.47;100.00;98292.00;4458072;79;28549;-81
2020/12/31 15:04:10;;;;;;;35.23;16.23;;;;;;;2.16;100.00;98295.42;4450973;79;28623;-80
2020/12/31 15:10:12;;;;;;;39.48;18.10;;;;;;;1.92;100.00;98296.69;4436307;79;28628;-82
2020/12/31 15:16:14;;;;;;;45.00;19.98;;;;;;;1.74;100.00;98302.47;4439086;78;28746;-81
2020/12/31 15:22:16;;;;;;;38.38;17.75;;;;;;;1.52;100.00;98313.90;4457154;79;28616;-81
2020/12/31 15:28:19;;;;;;;38.78;18.92;;;;;;;1.36;100.00;98317.63;4446113;79;28609;-80
2020/12/31 15:34:21;;;;;;;45.10;19.45;;;;;;;1.30;100.00;98314.92;4444429;79;28547;-82
2020/12/31 15:40:23;;;;;;;47.78;20.37;;;;;;;1.24;100.00;98311.20;4440291;78;28820;-80
2020/12/31 15:46:34;;;;;;;49.23;21.35;;;;;;;1.07;100.00;98314.08;4440787;79;28563;-79
2020/12/31 15:52:36;;;;;;;42.03;19.27;;;;;;;0.97;100.00;98313.55;4435718;79;28584;-80
2020/12/31 15:58:41;;;;;;;42.75;18.70;;;;;;;1.05;100.00;98316.61;4457700;79;28658;-79
2020/12/31 16:04:43;;;;;;;47.73;18.57;;;;;;;1.14;100.00;98312.81;4441801;78;28603;-79
2020/12/31 16:10:46;;;;;;;42.67;18.57;;;;;;;1.22;100.00;98318.52;4451977;79;28583;-80
2020/12/31 16:16:52;;;;;;;43.05;18.67;;;;;;;1.08;100.00;98317.55;4462565;79;28607;-79
2020/12/31 16:22:59;;;;;;;46.08;20.15;;;;;;;0.93;100.00;98330.30;4417397;79;28543;-79
2020/12/31 16:29:01;;;;;;;45.43;19.35;;;;;;;1.06;100.00;98327.00;4449491;79;28585;-80
2020/12/31 16:35:05;;;;;;;44.95;19.45;;;;;;;1.24;100.00;98328.41;4454854;78;28632;-79
2020/12/31 16:41:07;;;;;;;41.83;18.23;;;;;;;1.23;100.00;98328.09;4461336;78;28601;-81
2020/12/31 16:47:10;;;;;;;50.90;17.82;;;;;;;0.99;100.00;98323.97;4452058;78;28551;-77
2020/12/31 16:53:13;;;;;;;35.10;15.05;;;;;;;1.06;100.00;98328.32;4457212;78;28600;-80
2020/12/31 16:59:16;;;;;;;43.48;17.92;;;;;;;1.14;100.00;98331.87;4464056;78;28555;-77
2020/12/31 17:05:18;;;;;;;38.20;17.05;;;;;;;1.13;100.00;98340.83;4446538;78;28592;-80
2020/12/31 17:11:19;;;;;;;45.92;18.98;;;;;;;1.29;100.00;98337.92;4453379;78;28536;-76
2020/12/31 17:17:21;;;;;;;46.83;20.60;;;;;;;1.20;100.00;98333.78;4443475;78;28648;-79
2020/12/31 17:23:23;;;;;;;43.05;18.12;;;;;;;1.20;100.00;98334.58;4454525;78;28606;-78
2020/12/31 17:29:25;;;;;;;39.88;16.12;;;;;;;1.30;100.00;98337.44;4459312;78;28569;-79
2020/12/31 17:35:28;;;;;;;41.73;18.55;;;;;;;1.23;100.00;98334.20;4450779;78;28581;-80
2020/12/31 17:41:32;;;;;;;46.65;19.95;;;;;;;1.00;100.00;98338.35;4448988;79;28597;-81
2020/12/31 17:47:34;;;;;;;48.98;19.05;;;;;;;1.07;100.00;98343.72;4460097;78;28563;-82
2020/12/31 17:53:36;;;;;;;43.08;18.73;;;;;;;1.00;100.00;98344.13;4464048;78;28635;-81
2020/12/31 17:59:39;;;;;;;45.63;18.62;;;;;;;1.13;100.00;98351.41;4449715;78;28555;-79
2020/12/31 18:05:41;;;;;;;47.67;19.67;;;;;;;1.23;100.00;98342.66;4467299;78;28547;-81
2020/12/31 18:11:43;;;;;;;47.98;19.80;;;;;;;1.13;100.00;98340.83;4448645;78;28549;-81
2020/12/31 18:17:45;;;;;;;50.17;19.98;;;;;;;1.06;100.00;98333.61;4448140;78;28585;-81
2020/12/31 18:23:48;;;;;;;52.60;21.52;;;;;;;1.06;100.00;98332.30;4442621;78;28655;-81
2020/12/31 18:29:50;;;;;;;49.15;19.95;;;;;;;1.14;100.00;98323.92;4439411;78;28619;-81
2020/12/31 18:35:52;;;;;;;46.85;19.23;;;;;;;1.31;100.00;98331.95;4440135;78;43727;-81
2020/12/31 18:41:56;;;;;;;49.03;20.48;;;;;;;1.25;100.00;98338.83;4437231;79;28594;-81
2020/12/31 18:47:58;;;;;;;51.18;21.20;;;;;;;1.23;100.00;98338.69;4449392;79;28556;-80
2020/12/31 18:54:00;;;;;;;51.75;20.52;;;;;;;1.35;100.00;98330.56;4446646;79;28616;-80
2020/12/31 19:00:05;;;;;;;47.73;20.25;;;;;;;1.38;100.00;98328.84;4451599;79;28539;-79
2020/12/31 19:06:10;;;;;;;49.25;21.12;;;;;;;1.33;100.00;98337.05;4436950;79;28552;-79
2020/12/31 19:12:12;;;;;;;50.52;21.73;;;;;;;1.32;100.00;98328.79;4456797;78;28578;-79
2020/12/31 19:18:16;;;;;;;48.95;20.25;;;;;;;1.51;100.00;98333.95;4439642;79;28534;-78
2020/12/31 19:24:18;;;;;;;47.48;19.77;;;;;;;1.58;100.00;98332.72;4442325;78;28593;-79
2020/12/31 19:30:22;;;;;;;49.60;21.00;;;;;;;1.64;100.00;98331.44;4448381;78;28571;-78
2020/12/31 19:36:24;;;;;;;49.33;21.02;;;;;;;1.61;100.00;98331.80;4454260;79;28543;-81
2020/12/31 19:42:27;;;;;;;54.65;21.37;;;;;;;1.39;100.00;98328.36;4437834;79;28559;-79
2020/12/31 19:48:30;;;;;;;49.03;22.17;;;;;;;1.42;100.00;98327.97;4476295;77;28551;-82
2020/12/31 19:54:32;;;;;;;48.35;18.35;;;;;;;1.52;100.00;98328.47;4436365;79;28634;-79
2020/12/31 20:00:37;;;;;;;49.18;20.20;;;;;;;1.47;100.00;98325.59;4448604;79;28559;-80
2020/12/31 20:06:39;;;;;;;45.27;19.83;;;;;;;1.41;100.00;98325.50;4422078;78;28585;-82
2020/12/31 20:18:55;;;;;;;46.35;19.90;;;;;;;1.33;100.00;98324.64;4461023;77;73761;-81
2020/12/31 20:24:58;;;;;;;52.53;20.50;;;;;;;1.38;100.00;98327.52;4291038;81;28604;-81
2020/12/31 20:31:00;;;;;;;51.92;20.88;;;;;;;0.98;100.00;98331.08;4311557;80;28627;-80
2020/12/31 20:37:08;;;;;;;50.45;20.92;;;;;;;1.18;100.00;98332.63;4258347;83;28620;-81
2020/12/31 20:43:11;;;;;;;54.05;21.00;;;;;;;1.27;100.00;98338.63;4324458;80;28545;-80
2020/12/31 20:49:13;;;;;;;52.55;20.80;;;;;;;1.27;100.00;98345.24;4245115;83;28553;-82
2020/12/31 20:55:17;;;;;;;54.85;19.42;;;;;;;1.40;100.00;98333.97;4323857;80;28592;-80
2020/12/31 21:01:21;;;;;;;50.50;19.45;;;;;;;1.30;100.00;98345.38;4317478;80;44151;-81
2020/12/31 21:07:23;;;;;;;52.50;19.32;;;;;;;1.42;100.00;98343.86;4253690;81;28662;-81
2020/12/31 21:13:26;;;;;;;53.10;19.62;;;;;;;1.18;100.00;98346.36;4330031;80;28581;-81
2020/12/31 21:19:28;;;;;;;49.98;19.30;;;;;;;1.09;100.00;98352.28;4249361;83;28547;-82
2020/12/31 21:25:30;;;;;;;48.38;19.82;;;;;;;1.01;100.00;98342.64;4311798;80;28645;-83
2020/12/31 21:31:32;;;;;;;42.48;17.70;;;;;;;1.06;100.00;98346.05;4244255;81;28549;-83
2020/12/31 21:37:37;;;;;;;48.20;18.27;;;;;;;1.08;100.00;98341.38;4316299;82;28591;-81
2020/12/31 21:43:39;;;;;;;49.38;18.45;;;;;;;1.02;100.00;98342.11;4237051;83;28725;-82
2020/12/31 21:49:41;;;;;;;53.28;20.12;;;;;;;1.12;100.00;98341.31;4318227;80;28557;-83
2020/12/31 21:55:45;;;;;;;49.23;19.15;;;;;;;0.95;100.00;98334.10;4318287;80;28551;-81
2020/12/31 22:01:48;;;;;;;45.65;17.35;;;;;;;0.95;100.00;98338.08;4243303;83;43811;-80
2020/12/31 22:07:49;;;;;;;49.42;18.95;;;;;;;1.05;100.00;98334.63;4300501;81;28620;-80
2020/12/31 22:13:52;;;;;;;51.95;19.25;;;;;;;1.15;100.00;98325.07;4310742;81;28624;-79
2020/12/31 22:19:54;;;;;;;52.23;19.15;;;;;;;0.95;100.00;98324.34;4280879;81;28599;-78
2020/12/31 22:25:56;;;;;;;55.73;19.92;;;;;;;0.97;100.00;98317.52;4341887;81;28670;-78
2020/12/31 22:32:02;;;;;;;53.52;18.32;;;;;;;0.99;100.00;98319.50;4283298;81;44131;-79
2020/12/31 22:38:09;;;;;;;45.83;17.95;;;;;;;1.10;100.00;98318.18;4266203;81;28588;-81
2020/12/31 22:44:11;;;;;;;109.52;49.60;;;;;;;1.22;100.00;98311.89;4330767;81;28545;-81
2020/12/31 22:50:14;;;;;;;67.87;30.62;;;;;;;1.14;100.00;98313.34;4278972;82;44077;-78
2020/12/31 22:56:16;;;;;;;56.02;21.93;;;;;;;0.96;100.00;98309.27;4331676;81;28582;-80
2020/12/31 23:02:18;;;;;;;115.77;47.23;;;;;;;1.08;100.00;98318.36;4249543;82;28623;-83
2020/12/31 23:08:20;;;;;;;63.73;24.60;;;;;;;1.08;100.00;98321.00;4278251;81;28628;-80
2020/12/31 23:14:23;;;;;;;92.97;39.45;;;;;;;1.24;100.00;98313.84;4329341;81;28565;-84
2020/12/31 23:20:25;;;;;;;64.50;25.45;;;;;;;1.03;100.00;98315.47;4310991;82;28544;-84
2020/12/31 23:26:28;;;;;;;55.28;21.82;;;;;;;1.07;100.00;98319.89;4241419;83;28551;-82
2020/12/31 23:32:32;;;;;;;51.83;19.65;;;;;;;1.07;100.00;98310.63;4318396;82;28602;-80
2020/12/31 23:38:37;;;;;;;46.25;17.95;;;;;;;1.22;100.00;98310.58;4259645;83;28617;-81
2020/12/31 23:44:39;;;;;;;48.92;20.23;;;;;;;0.90;100.00;98312.68;4224571;82;28568;-84
2020/12/31 23:50:41;;;;;;;51.95;19.15;;;;;;;1.17;100.00;98306.33;4214854;83;28555;-81
2020/12/31 23:56:47;;;;;;;47.38;18.17;;;;;;;0.95;100.00;98311.60;4287533;82;28614;-81
